FDC1601 KPIT-KIND
Flight info
| Callsign | FDC1601 |
|---|---|
| Flight time | 0h 54m |
| Altitude | 32000 |
| Route | DILNE TVTRN APE RINTE SNKPT2 |
| Aircraft | B763/H-SDE3FGHIM3RWXY/LB1 |
Departure
| Time | 2026-05-06 16:59 |
|---|---|
| Airport | Pittsburgh International Airport (KPIT) |
Arrival
| Time | 2026-05-06 17:54 |
|---|---|
| Airport | Indianapolis International Airport (KIND) |
| Time | Latitude | Longitude | Altitude | Speed | Heading |
|---|---|---|---|---|---|
| 2026-05-06 16:37 | 40.50389 | -80.23662 | 1218 ft | 0 kts | 271° |
| 2026-05-06 16:47 | 40.50389 | -80.23656 | 1218 ft | 3 kts | 271° |
| 2026-05-06 16:48 | 40.50389 | -80.23631 | 1218 ft | 3 kts | 264° |
| 2026-05-06 16:48 | 40.50396 | -80.23606 | 1218 ft | 3 kts | 234° |
| 2026-05-06 16:48 | 40.50411 | -80.23589 | 1218 ft | 3 kts | 202° |
| 2026-05-06 16:48 | 40.50424 | -80.23585 | 1218 ft | 3 kts | 181° |
| 2026-05-06 16:49 | 40.50423 | -80.23585 | 1218 ft | 0 kts | 180° |
| 2026-05-06 16:51 | 40.50395 | -80.23585 | 1218 ft | 7 kts | 180° |
| 2026-05-06 16:51 | 40.50344 | -80.23581 | 1218 ft | 8 kts | 161° |
| 2026-05-06 16:51 | 40.50312 | -80.23532 | 1218 ft | 7 kts | 109° |
| 2026-05-06 16:52 | 40.50295 | -80.23463 | 1218 ft | 9 kts | 114° |
| 2026-05-06 16:52 | 40.50250 | -80.23390 | 1218 ft | 11 kts | 145° |
| 2026-05-06 16:52 | 40.50190 | -80.23367 | 1218 ft | 10 kts | 175° |
| 2026-05-06 16:52 | 40.50115 | -80.23363 | 1218 ft | 10 kts | 179° |
| 2026-05-06 16:53 | 40.50055 | -80.23336 | 1218 ft | 10 kts | 128° |
| 2026-05-06 16:53 | 40.50035 | -80.23245 | 1218 ft | 11 kts | 97° |
| 2026-05-06 16:53 | 40.50005 | -80.23138 | 1218 ft | 14 kts | 117° |
| 2026-05-06 16:53 | 40.49949 | -80.23005 | 1218 ft | 19 kts | 119° |
| 2026-05-06 16:54 | 40.49880 | -80.22845 | 1218 ft | 22 kts | 118° |
| 2026-05-06 16:54 | 40.49802 | -80.22660 | 1218 ft | 24 kts | 118° |
| 2026-05-06 16:54 | 40.49728 | -80.22487 | 1218 ft | 19 kts | 124° |
| 2026-05-06 16:54 | 40.49637 | -80.22426 | 1218 ft | 15 kts | 204° |
| 2026-05-06 16:55 | 40.49569 | -80.22508 | 1218 ft | 13 kts | 228° |
| 2026-05-06 16:55 | 40.49490 | -80.22541 | 1218 ft | 14 kts | 152° |
| 2026-05-06 16:55 | 40.49414 | -80.22457 | 1218 ft | 15 kts | 137° |
| 2026-05-06 16:55 | 40.49326 | -80.22347 | 1218 ft | 20 kts | 136° |
| 2026-05-06 16:56 | 40.49216 | -80.22213 | 1218 ft | 23 kts | 136° |
| 2026-05-06 16:56 | 40.49100 | -80.22072 | 1218 ft | 23 kts | 139° |
| 2026-05-06 16:56 | 40.48970 | -80.21936 | 1218 ft | 24 kts | 142° |
| 2026-05-06 16:56 | 40.48840 | -80.21792 | 1218 ft | 24 kts | 137° |
| 2026-05-06 16:57 | 40.48750 | -80.21624 | 1218 ft | 21 kts | 99° |
| 2026-05-06 16:57 | 40.48745 | -80.21423 | 1218 ft | 23 kts | 92° |
| 2026-05-06 16:57 | 40.48737 | -80.21228 | 1218 ft | 20 kts | 93° |
| 2026-05-06 16:57 | 40.48700 | -80.21096 | 1218 ft | 15 kts | 151° |
| 2026-05-06 16:58 | 40.48590 | -80.21088 | 1218 ft | 15 kts | 211° |
| 2026-05-06 16:58 | 40.48566 | -80.21201 | 1218 ft | 11 kts | 270° |
| 2026-05-06 16:58 | 40.48574 | -80.21529 | 1218 ft | 75 kts | 272° |
| 2026-05-06 16:58 | 40.48602 | -80.22576 | 1219 ft | 152 kts | 272° |
| 2026-05-06 16:59 | 40.48643 | -80.24217 | 1542 ft | 202 kts | 272° |
| 2026-05-06 16:59 | 40.48703 | -80.26166 | 2171 ft | 221 kts | 274° |
| 2026-05-06 16:59 | 40.48851 | -80.28256 | 2730 ft | 240 kts | 276° |
| 2026-05-06 16:59 | 40.49046 | -80.30504 | 3282 ft | 253 kts | 276° |
| 2026-05-06 17:00 | 40.49186 | -80.32843 | 3834 ft | 259 kts | 274° |
| 2026-05-06 17:00 | 40.49280 | -80.35247 | 4394 ft | 264 kts | 272° |
| 2026-05-06 17:00 | 40.49350 | -80.37668 | 4944 ft | 268 kts | 271° |
| 2026-05-06 17:00 | 40.49350 | -80.40121 | 5494 ft | 270 kts | 269° |
| 2026-05-06 17:01 | 40.49302 | -80.42599 | 6045 ft | 272 kts | 268° |
| 2026-05-06 17:01 | 40.49214 | -80.45095 | 6595 ft | 275 kts | 267° |
| 2026-05-06 17:01 | 40.49102 | -80.47604 | 7142 ft | 278 kts | 266° |
| 2026-05-06 17:01 | 40.48987 | -80.50137 | 7690 ft | 280 kts | 266° |
| 2026-05-06 17:02 | 40.48869 | -80.52712 | 8242 ft | 283 kts | 266° |
| 2026-05-06 17:02 | 40.48744 | -80.55334 | 8798 ft | 286 kts | 266° |
| 2026-05-06 17:02 | 40.48598 | -80.57947 | 9347 ft | 289 kts | 265° |
| 2026-05-06 17:02 | 40.48432 | -80.60580 | 9896 ft | 291 kts | 265° |
| 2026-05-06 17:03 | 40.48261 | -80.63281 | 10374 ft | 306 kts | 265° |
| 2026-05-06 17:03 | 40.48074 | -80.66202 | 10784 ft | 331 kts | 265° |
| 2026-05-06 17:03 | 40.47881 | -80.69309 | 11162 ft | 355 kts | 265° |
| 2026-05-06 17:03 | 40.47686 | -80.72622 | 11620 ft | 374 kts | 265° |
| 2026-05-06 17:04 | 40.47536 | -80.75170 | 12074 ft | 383 kts | 265° |
| 2026-05-06 17:04 | 40.47362 | -80.78104 | 12731 ft | 389 kts | 265° |
| 2026-05-06 17:04 | 40.47163 | -80.81537 | 13467 ft | 396 kts | 266° |
| 2026-05-06 17:04 | 40.46957 | -80.85220 | 14277 ft | 402 kts | 266° |
| 2026-05-06 17:05 | 40.46758 | -80.88862 | 15092 ft | 406 kts | 267° |
| 2026-05-06 17:05 | 40.46667 | -80.92599 | 15901 ft | 410 kts | 269° |
| 2026-05-06 17:05 | 40.46658 | -80.96382 | 16676 ft | 415 kts | 270° |
| 2026-05-06 17:05 | 40.46679 | -81.00188 | 17421 ft | 420 kts | 270° |
| 2026-05-06 17:06 | 40.46696 | -81.04043 | 18147 ft | 425 kts | 270° |
| 2026-05-06 17:06 | 40.46712 | -81.07940 | 18858 ft | 429 kts | 270° |
| 2026-05-06 17:06 | 40.46726 | -81.11892 | 19563 ft | 434 kts | 270° |
| 2026-05-06 17:06 | 40.46738 | -81.15880 | 20257 ft | 438 kts | 270° |
| 2026-05-06 17:07 | 40.46748 | -81.19905 | 20926 ft | 442 kts | 270° |
| 2026-05-06 17:07 | 40.46731 | -81.23958 | 21561 ft | 446 kts | 269° |
| 2026-05-06 17:07 | 40.46679 | -81.27800 | 22134 ft | 450 kts | 269° |
| 2026-05-06 17:07 | 40.46617 | -81.32158 | 22755 ft | 455 kts | 269° |
| 2026-05-06 17:08 | 40.46572 | -81.36279 | 23327 ft | 459 kts | 269° |
| 2026-05-06 17:08 | 40.46524 | -81.40513 | 23898 ft | 463 kts | 269° |
| 2026-05-06 17:08 | 40.46465 | -81.44730 | 24448 ft | 466 kts | 269° |
| 2026-05-06 17:08 | 40.46418 | -81.49037 | 24989 ft | 470 kts | 269° |
| 2026-05-06 17:09 | 40.46371 | -81.53387 | 25520 ft | 474 kts | 269° |
| 2026-05-06 17:09 | 40.46312 | -81.57700 | 26035 ft | 477 kts | 269° |
| 2026-05-06 17:09 | 40.46267 | -81.62076 | 26557 ft | 481 kts | 270° |
| 2026-05-06 17:09 | 40.46253 | -81.66512 | 27055 ft | 484 kts | 270° |
| 2026-05-06 17:10 | 40.46232 | -81.70866 | 27618 ft | 484 kts | 269° |
| 2026-05-06 17:10 | 40.46208 | -81.75350 | 28269 ft | 483 kts | 270° |
| 2026-05-06 17:10 | 40.46191 | -81.79744 | 28914 ft | 481 kts | 270° |
| 2026-05-06 17:10 | 40.46162 | -81.84124 | 29550 ft | 479 kts | 269° |
| 2026-05-06 17:11 | 40.46139 | -81.88439 | 30145 ft | 477 kts | 270° |
| 2026-05-06 17:11 | 40.46115 | -81.92811 | 30726 ft | 476 kts | 269° |
| 2026-05-06 17:11 | 40.46069 | -81.97150 | 31284 ft | 475 kts | 269° |
| 2026-05-06 17:11 | 40.45991 | -82.01478 | 31694 ft | 477 kts | 269° |
| 2026-05-06 17:12 | 40.45906 | -82.05875 | 31869 ft | 473 kts | 269° |
| 2026-05-06 17:12 | 40.45722 | -82.10098 | 31945 ft | 455 kts | 263° |
| 2026-05-06 17:12 | 40.44932 | -82.14016 | 31968 ft | 436 kts | 248° |
| 2026-05-06 17:12 | 40.43409 | -82.17377 | 31971 ft | 421 kts | 236° |
| 2026-05-06 17:13 | 40.41508 | -82.20193 | 31970 ft | 407 kts | 230° |
| 2026-05-06 17:13 | 40.39505 | -82.22744 | 31969 ft | 393 kts | 230° |
| 2026-05-06 17:13 | 40.37606 | -82.25204 | 31968 ft | 378 kts | 232° |
| 2026-05-06 17:13 | 40.35833 | -82.27653 | 31969 ft | 363 kts | 235° |
| 2026-05-06 17:14 | 40.34167 | -82.30074 | 31973 ft | 352 kts | 236° |
| 2026-05-06 17:14 | 40.30969 | -82.34953 | 31973 ft | 356 kts | 237° |
| 2026-05-06 17:15 | 40.27755 | -82.39916 | 31972 ft | 358 kts | 237° |
| 2026-05-06 17:15 | 40.25042 | -82.44077 | 31972 ft | 357 kts | 237° |
| 2026-05-06 17:16 | 40.21779 | -82.49013 | 31975 ft | 361 kts | 236° |
| 2026-05-06 17:16 | 40.18424 | -82.53992 | 31974 ft | 367 kts | 236° |
| 2026-05-06 17:17 | 40.15632 | -82.59428 | 31978 ft | 357 kts | 252° |
| 2026-05-06 17:17 | 40.15182 | -82.62621 | 31979 ft | 358 kts | 265° |
| 2026-05-06 17:17 | 40.15319 | -82.65872 | 31977 ft | 361 kts | 272° |
| 2026-05-06 17:18 | 40.16266 | -82.72333 | 31977 ft | 363 kts | 275° |
| 2026-05-06 17:18 | 40.17128 | -82.78849 | 31976 ft | 362 kts | 274° |
| 2026-05-06 17:19 | 40.17827 | -82.85314 | 31975 ft | 357 kts | 272° |
| 2026-05-06 17:19 | 40.18399 | -82.91764 | 31975 ft | 357 kts | 272° |
| 2026-05-06 17:20 | 40.18964 | -82.98207 | 31975 ft | 357 kts | 272° |
| 2026-05-06 17:20 | 40.19525 | -83.04645 | 31984 ft | 357 kts | 272° |
| 2026-05-06 17:21 | 40.20166 | -83.11109 | 31986 ft | 358 kts | 273° |
| 2026-05-06 17:21 | 40.20849 | -83.17592 | 31987 ft | 358 kts | 273° |
| 2026-05-06 17:22 | 40.21528 | -83.24019 | 31988 ft | 358 kts | 273° |
| 2026-05-06 17:22 | 40.22148 | -83.30518 | 31987 ft | 355 kts | 271° |
| 2026-05-06 17:23 | 40.22682 | -83.36931 | 31992 ft | 355 kts | 271° |
| 2026-05-06 17:23 | 40.23252 | -83.43335 | 31993 ft | 355 kts | 272° |
| 2026-05-06 17:24 | 40.23878 | -83.49728 | 31992 ft | 355 kts | 272° |
| 2026-05-06 17:24 | 40.24533 | -83.56145 | 31992 ft | 355 kts | 272° |
| 2026-05-06 17:25 | 40.25121 | -83.62558 | 31991 ft | 355 kts | 271° |
| 2026-05-06 17:25 | 40.25652 | -83.68972 | 31992 ft | 355 kts | 272° |
| 2026-05-06 17:26 | 40.26177 | -83.75427 | 31999 ft | 355 kts | 272° |
| 2026-05-06 17:26 | 40.26744 | -83.81832 | 31999 ft | 353 kts | 272° |
| 2026-05-06 17:26 | 40.27043 | -83.85002 | 31810 ft | 357 kts | 272° |
| 2026-05-06 17:27 | 40.27352 | -83.88234 | 31374 ft | 357 kts | 273° |
| 2026-05-06 17:27 | 40.27667 | -83.91463 | 30981 ft | 354 kts | 272° |
| 2026-05-06 17:27 | 40.27978 | -83.94653 | 30660 ft | 351 kts | 272° |
| 2026-05-06 17:27 | 40.28275 | -83.97854 | 30358 ft | 360 kts | 272° |
| 2026-05-06 17:28 | 40.28561 | -84.01129 | 30025 ft | 368 kts | 272° |
| 2026-05-06 17:28 | 40.28796 | -84.04516 | 29652 ft | 370 kts | 270° |
| 2026-05-06 17:28 | 40.28834 | -84.07871 | 29278 ft | 369 kts | 266° |
| 2026-05-06 17:28 | 40.28725 | -84.11201 | 28905 ft | 368 kts | 265° |
| 2026-05-06 17:29 | 40.28555 | -84.14540 | 28528 ft | 366 kts | 264° |
| 2026-05-06 17:29 | 40.28385 | -84.17879 | 28150 ft | 365 kts | 265° |
| 2026-05-06 17:29 | 40.28236 | -84.21174 | 27775 ft | 364 kts | 265° |
| 2026-05-06 17:29 | 40.28102 | -84.24512 | 27395 ft | 363 kts | 265° |
| 2026-05-06 17:30 | 40.27979 | -84.27797 | 27019 ft | 361 kts | 265° |
| 2026-05-06 17:30 | 40.27861 | -84.31048 | 26658 ft | 358 kts | 265° |
| 2026-05-06 17:30 | 40.27749 | -84.34300 | 26312 ft | 356 kts | 266° |
| 2026-05-06 17:30 | 40.27654 | -84.37548 | 25961 ft | 356 kts | 266° |
| 2026-05-06 17:31 | 40.27558 | -84.40782 | 25610 ft | 355 kts | 266° |
| 2026-05-06 17:31 | 40.27451 | -84.44004 | 25258 ft | 354 kts | 266° |
| 2026-05-06 17:31 | 40.27353 | -84.47203 | 24909 ft | 353 kts | 266° |
| 2026-05-06 17:31 | 40.27262 | -84.50447 | 24553 ft | 352 kts | 266° |
| 2026-05-06 17:32 | 40.27160 | -84.53653 | 24201 ft | 351 kts | 266° |
| 2026-05-06 17:32 | 40.27032 | -84.56822 | 23851 ft | 348 kts | 265° |
| 2026-05-06 17:32 | 40.26903 | -84.59952 | 23503 ft | 348 kts | 265° |
| 2026-05-06 17:32 | 40.26786 | -84.63128 | 23151 ft | 348 kts | 266° |
| 2026-05-06 17:33 | 40.26670 | -84.66275 | 22800 ft | 345 kts | 265° |
| 2026-05-06 17:33 | 40.26528 | -84.69432 | 22445 ft | 343 kts | 265° |
| 2026-05-06 17:33 | 40.26376 | -84.72531 | 22105 ft | 340 kts | 265° |
| 2026-05-06 17:33 | 40.26239 | -84.75584 | 21778 ft | 338 kts | 265° |
| 2026-05-06 17:34 | 40.26105 | -84.78648 | 21450 ft | 336 kts | 265° |
| 2026-05-06 17:34 | 40.25985 | -84.81707 | 21117 ft | 334 kts | 266° |
| 2026-05-06 17:34 | 40.25881 | -84.84745 | 20801 ft | 332 kts | 266° |
| 2026-05-06 17:34 | 40.25793 | -84.87771 | 20475 ft | 330 kts | 266° |
| 2026-05-06 17:35 | 40.25714 | -84.90760 | 20146 ft | 328 kts | 266° |
| 2026-05-06 17:35 | 40.25624 | -84.93733 | 19818 ft | 326 kts | 266° |
| 2026-05-06 17:35 | 40.25524 | -84.96676 | 19498 ft | 323 kts | 266° |
| 2026-05-06 17:36 | 40.25300 | -85.02517 | 18854 ft | 320 kts | 265° |
| 2026-05-06 17:36 | 40.25180 | -85.05442 | 18538 ft | 317 kts | 265° |
| 2026-05-06 17:36 | 40.25054 | -85.08302 | 18233 ft | 316 kts | 265° |
| 2026-05-06 17:36 | 40.24917 | -85.11163 | 17939 ft | 313 kts | 265° |
| 2026-05-06 17:37 | 40.24770 | -85.14022 | 17643 ft | 312 kts | 265° |
| 2026-05-06 17:37 | 40.24629 | -85.16850 | 17360 ft | 310 kts | 265° |
| 2026-05-06 17:37 | 40.24509 | -85.19647 | 17066 ft | 308 kts | 265° |
| 2026-05-06 17:37 | 40.24397 | -85.22429 | 16779 ft | 307 kts | 265° |
| 2026-05-06 17:38 | 40.24294 | -85.25212 | 16495 ft | 305 kts | 265° |
| 2026-05-06 17:38 | 40.24192 | -85.27964 | 16208 ft | 303 kts | 265° |
| 2026-05-06 17:38 | 40.24086 | -85.30708 | 15909 ft | 302 kts | 265° |
| 2026-05-06 17:38 | 40.23970 | -85.33463 | 15610 ft | 299 kts | 265° |
| 2026-05-06 17:39 | 40.23851 | -85.36171 | 15315 ft | 298 kts | 265° |
| 2026-05-06 17:39 | 40.23534 | -85.38846 | 15015 ft | 296 kts | 257° |
| 2026-05-06 17:39 | 40.22855 | -85.41374 | 14720 ft | 296 kts | 250° |
| 2026-05-06 17:39 | 40.22038 | -85.43558 | 14490 ft | 296 kts | 247° |
| 2026-05-06 17:40 | 40.21107 | -85.45775 | 14253 ft | 295 kts | 245° |
| 2026-05-06 17:40 | 40.20073 | -85.48108 | 14001 ft | 294 kts | 245° |
| 2026-05-06 17:40 | 40.19047 | -85.50370 | 13742 ft | 283 kts | 245° |
| 2026-05-06 17:40 | 40.18062 | -85.52541 | 13485 ft | 271 kts | 245° |
| 2026-05-06 17:41 | 40.17131 | -85.54611 | 13235 ft | 261 kts | 245° |
| 2026-05-06 17:41 | 40.16236 | -85.56622 | 13007 ft | 251 kts | 245° |
| 2026-05-06 17:41 | 40.15383 | -85.58567 | 12764 ft | 242 kts | 246° |
| 2026-05-06 17:41 | 40.14585 | -85.60443 | 12517 ft | 233 kts | 247° |
| 2026-05-06 17:42 | 40.13822 | -85.62290 | 12262 ft | 226 kts | 247° |
| 2026-05-06 17:42 | 40.13089 | -85.64055 | 12001 ft | 220 kts | 247° |
| 2026-05-06 17:42 | 40.12361 | -85.65789 | 11754 ft | 213 kts | 247° |
| 2026-05-06 17:42 | 40.11657 | -85.67461 | 11504 ft | 208 kts | 247° |
| 2026-05-06 17:43 | 40.10963 | -85.69107 | 11245 ft | 203 kts | 247° |
| 2026-05-06 17:43 | 40.10283 | -85.70703 | 10991 ft | 198 kts | 247° |
| 2026-05-06 17:43 | 40.09618 | -85.72251 | 10743 ft | 194 kts | 247° |
| 2026-05-06 17:43 | 40.08964 | -85.73765 | 10493 ft | 190 kts | 247° |
| 2026-05-06 17:44 | 40.08319 | -85.75257 | 10242 ft | 188 kts | 247° |
| 2026-05-06 17:44 | 40.07677 | -85.76756 | 9971 ft | 192 kts | 245° |
| 2026-05-06 17:44 | 40.06957 | -85.78469 | 9670 ft | 230 kts | 243° |
| 2026-05-06 17:44 | 40.06162 | -85.80345 | 9413 ft | 242 kts | 242° |
| 2026-05-06 17:45 | 40.05286 | -85.82292 | 9159 ft | 249 kts | 241° |
| 2026-05-06 17:45 | 40.04378 | -85.84207 | 8910 ft | 252 kts | 240° |
| 2026-05-06 17:45 | 40.03419 | -85.86146 | 8657 ft | 254 kts | 239° |
| 2026-05-06 17:45 | 40.02381 | -85.88037 | 8404 ft | 255 kts | 235° |
| 2026-05-06 17:46 | 40.01276 | -85.89819 | 8154 ft | 255 kts | 233° |
| 2026-05-06 17:46 | 40.00110 | -85.91593 | 7901 ft | 255 kts | 232° |
| 2026-05-06 17:46 | 39.98964 | -85.93315 | 7653 ft | 251 kts | 232° |
| 2026-05-06 17:46 | 39.97821 | -85.95024 | 7393 ft | 246 kts | 231° |
| 2026-05-06 17:47 | 39.96703 | -85.96689 | 7146 ft | 239 kts | 231° |
| 2026-05-06 17:47 | 39.95630 | -85.98278 | 6894 ft | 231 kts | 231° |
| 2026-05-06 17:47 | 39.94578 | -85.99828 | 6642 ft | 226 kts | 231° |
| 2026-05-06 17:47 | 39.93887 | -86.00848 | 6474 ft | 224 kts | 231° |
| 2026-05-06 17:48 | 39.92537 | -86.02860 | 6142 ft | 220 kts | 231° |
| 2026-05-06 17:48 | 39.91532 | -86.04373 | 5890 ft | 221 kts | 231° |
| 2026-05-06 17:48 | 39.90858 | -86.05405 | 5720 ft | 222 kts | 232° |
| 2026-05-06 17:48 | 39.89878 | -86.06951 | 5470 ft | 223 kts | 232° |
| 2026-05-06 17:49 | 39.88890 | -86.08522 | 5217 ft | 223 kts | 232° |
| 2026-05-06 17:49 | 39.87883 | -86.10045 | 4967 ft | 223 kts | 230° |
| 2026-05-06 17:49 | 39.86810 | -86.11503 | 4716 ft | 223 kts | 227° |
| 2026-05-06 17:49 | 39.85724 | -86.12889 | 4464 ft | 211 kts | 226° |
| 2026-05-06 17:50 | 39.84681 | -86.14162 | 4191 ft | 200 kts | 225° |
| 2026-05-06 17:50 | 39.83686 | -86.15383 | 3896 ft | 195 kts | 225° |
| 2026-05-06 17:50 | 39.82726 | -86.16570 | 3598 ft | 189 kts | 225° |
| 2026-05-06 17:50 | 39.81777 | -86.17755 | 3294 ft | 186 kts | 225° |
| 2026-05-06 17:51 | 39.80872 | -86.18902 | 3003 ft | 177 kts | 226° |
| 2026-05-06 17:51 | 39.80028 | -86.20006 | 2745 ft | 167 kts | 227° |
| 2026-05-06 17:51 | 39.79240 | -86.21054 | 2626 ft | 162 kts | 227° |
| 2026-05-06 17:51 | 39.78443 | -86.22120 | 2492 ft | 165 kts | 227° |
| 2026-05-06 17:52 | 39.77629 | -86.23192 | 2227 ft | 167 kts | 226° |
| 2026-05-06 17:52 | 39.76780 | -86.24231 | 1984 ft | 170 kts | 224° |
| 2026-05-06 17:52 | 39.75916 | -86.25309 | 1677 ft | 177 kts | 225° |
| 2026-05-06 17:52 | 39.75031 | -86.26465 | 1346 ft | 179 kts | 225° |
| 2026-05-06 17:53 | 39.74166 | -86.27568 | 1158 ft | 166 kts | 225° |
| 2026-05-06 17:53 | 39.73387 | -86.28568 | 990 ft | 153 kts | 225° |
| 2026-05-06 17:53 | 39.72668 | -86.29495 | 816 ft | 135 kts | 224° |
| 2026-05-06 17:53 | 39.72143 | -86.30166 | 811 ft | 65 kts | 224° |
| 2026-05-06 17:54 | 39.71935 | -86.30429 | 811 ft | 34 kts | 224° |
| 2026-05-06 17:54 | 39.71772 | -86.30639 | 811 ft | 33 kts | 223° |
| 2026-05-06 17:54 | 39.71612 | -86.30840 | 811 ft | 31 kts | 225° |
| 2026-05-06 17:54 | 39.71478 | -86.31028 | 811 ft | 21 kts | 247° |
| 2026-05-06 17:55 | 39.71500 | -86.31159 | 811 ft | 14 kts | 308° |
| 2026-05-06 17:55 | 39.71585 | -86.31190 | 811 ft | 16 kts | 30° |
| 2026-05-06 17:55 | 39.71672 | -86.31091 | 811 ft | 18 kts | 45° |
| 2026-05-06 17:55 | 39.71764 | -86.30972 | 811 ft | 20 kts | 44° |
| 2026-05-06 17:56 | 39.71872 | -86.30833 | 811 ft | 22 kts | 44° |
| 2026-05-06 17:56 | 39.71986 | -86.30688 | 811 ft | 24 kts | 44° |
| 2026-05-06 17:56 | 39.72105 | -86.30535 | 811 ft | 23 kts | 45° |
| 2026-05-06 17:56 | 39.72204 | -86.30442 | 811 ft | 12 kts | 348° |
| 2026-05-06 17:57 | 39.72269 | -86.30506 | 811 ft | 12 kts | 306° |
| 2026-05-06 17:57 | 39.72307 | -86.30605 | 811 ft | 13 kts | 304° |
| 2026-05-06 17:57 | 39.72359 | -86.30680 | 811 ft | 0 kts | 315° |
| 2026-05-06 17:58 | 39.72360 | -86.30680 | 811 ft | 0 kts | 315° |